KFAR/FAR METAR and TAF weather

Enter ICAO airport designator
Station Type Date Time Source
KFAR METAR 2021/10/22 18:53 UTC NOAA

KFAR 221853Z 01005KT 10SM CLR 08/M04 A3011 RMK AO2 SLP205 T00831039 $


Station Type Date Time Source
KFAR Decoded METAR 2021/10/22 18:53 UTC NOAA

HECTOR INTERNATIONAL AIRPORT , ND, United States (KFAR) 46-56N 096-49W 277M
Oct 22, 2021 - 02:53 PM EDT / 2021.10.22 1853 UTC
Wind: from the N (010 degrees) at 6 MPH (5 KT):0
Visibility: 10 mile(s):0
Sky conditions: clear
Temperature: 46.9 F (8.3 C)
Dew Point: 25.0 F (-3.9 C)
Relative Humidity: 41%
Pressure (altimeter): 30.11 in. Hg (1019 hPa)
ob: KFAR 221853Z 01005KT 10SM CLR 08/M04 A3011 RMK AO2 SLP205 T00831039
cycle: 19

Station Type Date Time Source
KFAR TAF 2021/10/22 18:33 UTC NOAA

TAF KFAR 221731Z 2218/2318 02008KT P6SM FEW180
FM230900 VRB06KT P6SM SCT200

Example: see airport list